Time;durP1;ratioP1;P1;durP2;ratioP2;P2;SDS_P1;SDS_P2;PMS_P1;PMS_P2;Temp;Humidity;BMP_temperature;BMP_pressure;BME280_temperature;BME280_humidity;BME280_pressure;Samples;Min_cycle;Max_cycle;Signal;HPM_P1;HPM_P2
2021/10/20 00:00:46;;;;;;;9.00;5.70;;;13.60;99.90;;;;;;5024433;28;20433;-63
2021/10/20 00:03:12;;;;;;;7.60;4.97;;;13.60;99.90;;;;;;5021772;28;20238;-63
2021/10/20 00:05:38;;;;;;;7.83;5.80;;;13.50;99.90;;;;;;5022413;28;20561;-63
2021/10/20 00:08:07;;;;;;;8.07;5.40;;;13.40;99.90;;;;;;5024206;28;20204;-63
2021/10/20 00:10:34;;;;;;;6.23;5.23;;;13.40;99.90;;;;;;5024282;28;20220;-63
2021/10/20 00:13:00;;;;;;;5.77;5.17;;;13.40;99.90;;;;;;5024178;28;20582;-63
2021/10/20 00:15:26;;;;;;;7.60;4.93;;;13.40;99.90;;;;;;5023479;28;20586;-63
2021/10/20 00:17:52;;;;;;;6.17;5.53;;;13.40;99.90;;;;;;5025782;28;20653;-63
2021/10/20 00:20:22;;;;;;;8.60;5.47;;;13.40;99.90;;;;;;5005171;28;20273;-63
2021/10/20 00:22:49;;;;;;;5.47;4.97;;;13.50;99.90;;;;;;5022981;28;20435;-63
2021/10/20 00:25:16;;;;;;;6.63;4.30;;;13.40;99.90;;;;;;5022149;28;20435;-64
2021/10/20 00:27:42;;;;;;;7.50;5.10;;;13.50;99.90;;;;;;5025882;28;20493;-63
2021/10/20 00:30:09;;;;;;;5.93;4.97;;;13.60;99.90;;;;;;5022632;28;20465;-63
2021/10/20 00:32:35;;;;;;;5.80;4.27;;;13.40;99.90;;;;;;5005441;28;20916;-63
2021/10/20 00:35:01;;;;;;;5.60;5.00;;;13.50;99.90;;;;;;5007562;28;20431;-63
2021/10/20 00:37:27;;;;;;;6.87;4.90;;;13.20;99.90;;;;;;5021796;28;20439;-63
2021/10/20 00:39:53;;;;;;;6.13;4.57;;;13.30;99.90;;;;;;5024511;28;21347;-63
2021/10/20 00:42:19;;;;;;;6.50;4.23;;;13.10;99.90;;;;;;5022774;28;20196;-63
2021/10/20 00:44:59;;;;;;;8.40;5.10;;;12.90;99.90;;;;;;5024916;28;20185;-63
2021/10/20 00:47:27;;;;;;;6.17;4.50;;;12.90;99.90;;;;;;5020828;28;20439;-63
2021/10/20 00:49:53;;;;;;;7.50;4.47;;;12.70;99.90;;;;;;5023261;28;20442;-63
2021/10/20 00:52:21;;;;;;;6.07;4.70;;;12.80;99.90;;;;;;5022678;28;20775;-63
2021/10/20 00:54:49;;;;;;;5.60;4.67;;;12.70;99.90;;;;;;5021673;28;20678;-63
2021/10/20 00:57:15;;;;;;;6.23;4.73;;;12.70;99.90;;;;;;5026617;28;20506;-63
2021/10/20 00:59:42;;;;;;;6.40;5.10;;;12.70;99.90;;;;;;5022839;28;20438;-63
2021/10/20 01:02:08;;;;;;;6.67;4.73;;;12.80;99.90;;;;;;5023023;28;20550;-63
2021/10/20 01:04:36;;;;;;;5.30;4.80;;;12.80;99.90;;;;;;5011976;28;20542;-63
2021/10/20 01:07:06;;;;;;;4.57;4.10;;;12.80;99.90;;;;;;5026043;28;20423;-62
2021/10/20 01:09:33;;;;;;;5.77;4.10;;;12.90;99.90;;;;;;5021583;28;20439;-63
2021/10/20 01:11:59;;;;;;;8.20;4.90;;;12.90;99.90;;;;;;5022691;28;20493;-62
2021/10/20 01:14:28;;;;;;;8.17;4.90;;;12.80;99.90;;;;;;5022011;28;20439;-62
2021/10/20 01:16:54;;;;;;;6.23;4.77;;;12.80;99.90;;;;;;5023003;28;20189;-62
2021/10/20 01:19:21;;;;;;;7.90;4.47;;;12.70;99.90;;;;;;5023057;28;20450;-63
2021/10/20 01:21:46;;;;;;;8.37;4.67;;;12.80;99.90;;;;;;5021442;28;20574;-62
2021/10/20 01:24:12;;;;;;;5.37;4.50;;;12.90;99.90;;;;;;5022877;28;20442;-62
2021/10/20 01:26:38;;;;;;;5.53;4.37;;;12.90;99.90;;;;;;5026712;28;20191;-62
2021/10/20 01:29:03;;;;;;;7.03;4.73;;;12.90;99.90;;;;;;5020992;28;20203;-62
2021/10/20 01:31:29;;;;;;;5.17;4.30;;;12.90;99.90;;;;;;5024723;28;20216;-62
2021/10/20 01:33:55;;;;;;;7.10;4.17;;;13.00;99.90;;;;;;5021450;28;20211;-63
2021/10/20 01:36:21;;;;;;;4.30;3.77;;;13.00;99.90;;;;;;5021461;28;20188;-62
2021/10/20 01:38:49;;;;;;;4.90;4.07;;;13.10;99.90;;;;;;5021931;28;20255;-62
2021/10/20 01:41:14;;;;;;;5.23;4.43;;;13.10;99.90;;;;;;5005305;28;20580;-62
2021/10/20 01:43:42;;;;;;;5.03;3.97;;;13.20;99.90;;;;;;5005590;28;20498;-62
2021/10/20 01:46:12;;;;;;;6.43;5.17;;;13.40;99.90;;;;;;5020416;28;20538;-63
2021/10/20 01:48:38;;;;;;;4.77;4.30;;;13.40;99.90;;;;;;5021277;28;20517;-63
2021/10/20 01:51:04;;;;;;;4.87;4.07;;;13.30;99.90;;;;;;5007939;28;21078;-62
2021/10/20 01:53:32;;;;;;;4.40;3.87;;;13.30;99.90;;;;;;5022604;28;20208;-63
2021/10/20 01:55:58;;;;;;;5.60;4.40;;;13.20;99.90;;;;;;5023675;28;20649;-63
2021/10/20 01:58:23;;;;;;;10.70;5.20;;;13.20;99.90;;;;;;5026360;28;20439;-62
2021/10/20 02:00:49;;;;;;;5.53;4.43;;;13.20;99.90;;;;;;5024003;28;20235;-62
2021/10/20 02:03:15;;;;;;;5.07;4.47;;;13.00;99.90;;;;;;5024434;28;20197;-63
2021/10/20 02:05:40;;;;;;;4.90;4.17;;;13.10;99.90;;;;;;5024964;28;20199;-62
2021/10/20 02:08:06;;;;;;;7.20;4.67;;;13.10;99.90;;;;;;5022890;28;20225;-63
2021/10/20 02:10:32;;;;;;;4.90;4.40;;;13.10;99.90;;;;;;5010659;28;20291;-62
2021/10/20 02:12:57;;;;;;;5.70;4.23;;;13.20;99.90;;;;;;5024677;28;20211;-63
2021/10/20 02:15:23;;;;;;;5.60;4.83;;;13.10;99.90;;;;;;5025281;28;20192;-63
2021/10/20 02:17:48;;;;;;;5.90;4.70;;;13.10;99.90;;;;;;5009984;28;20206;-63
2021/10/20 02:20:15;;;;;;;6.03;4.60;;;13.10;99.90;;;;;;5022525;28;20207;-63
2021/10/20 02:22:45;;;;;;;5.03;4.17;;;13.00;99.90;;;;;;5026130;28;20246;-62
2021/10/20 02:25:12;;;;;;;5.33;4.40;;;12.90;99.90;;;;;;5024822;28;20447;-62
2021/10/20 02:27:38;;;;;;;5.50;4.30;;;12.70;99.90;;;;;;5025981;28;20450;-63
2021/10/20 02:30:06;;;;;;;5.83;4.83;;;12.80;99.90;;;;;;5007668;28;20720;-63
2021/10/20 02:32:32;;;;;;;5.97;4.43;;;12.90;99.90;;;;;;5024318;28;20473;-63
2021/10/20 02:34:57;;;;;;;5.93;5.33;;;12.70;99.90;;;;;;5027553;28;20443;-63
2021/10/20 02:37:23;;;;;;;6.43;4.20;;;12.70;99.90;;;;;;5023810;28;20186;-63
2021/10/20 02:39:49;;;;;;;5.70;4.70;;;12.70;99.90;;;;;;5024319;28;20403;-63
2021/10/20 02:42:15;;;;;;;5.00;4.50;;;12.70;99.90;;;;;;5024010;28;20587;-63
2021/10/20 02:44:40;;;;;;;9.70;4.67;;;12.80;99.90;;;;;;5023916;28;20191;-62
2021/10/20 02:47:06;;;;;;;4.77;4.23;;;12.60;99.90;;;;;;5023762;28;20224;-62
2021/10/20 02:49:32;;;;;;;4.47;4.00;;;12.70;99.90;;;;;;5026492;28;20271;-62
2021/10/20 02:51:58;;;;;;;6.83;4.90;;;12.70;99.90;;;;;;5022247;28;20212;-63
2021/10/20 02:54:24;;;;;;;6.60;5.00;;;12.70;99.90;;;;;;5006091;28;20195;-63
2021/10/20 02:56:50;;;;;;;5.80;4.77;;;12.60;99.90;;;;;;5023166;28;20428;-63
2021/10/20 02:59:16;;;;;;;4.50;4.10;;;12.60;99.90;;;;;;5024817;28;20733;-62
2021/10/20 03:01:41;;;;;;;4.73;4.30;;;12.80;99.90;;;;;;5025621;28;20200;-63
2021/10/20 03:04:07;;;;;;;8.37;6.03;;;12.70;99.90;;;;;;5024300;28;20196;-63
2021/10/20 03:06:33;;;;;;;7.43;5.37;;;12.80;99.90;;;;;;5026635;28;20189;-63
2021/10/20 03:08:59;;;;;;;5.40;4.53;;;12.70;99.90;;;;;;5025047;28;20658;-63
2021/10/20 03:11:24;;;;;;;6.07;5.23;;;12.80;99.90;;;;;;5022514;28;20216;-63
2021/10/20 03:13:50;;;;;;;5.43;4.93;;;12.70;99.90;;;;;;5023321;28;20698;-62
2021/10/20 03:16:16;;;;;;;7.57;4.30;;;12.70;99.90;;;;;;5026236;28;20192;-63
2021/10/20 03:18:43;;;;;;;6.03;5.00;;;12.70;99.90;;;;;;5023418;28;20910;-62
2021/10/20 03:21:09;;;;;;;6.13;5.53;;;12.80;99.90;;;;;;5028695;28;20455;-62
2021/10/20 03:23:34;;;;;;;6.20;4.83;;;12.80;99.90;;;;;;5025843;28;20798;-62
2021/10/20 03:26:00;;;;;;;11.67;9.30;;;12.60;99.90;;;;;;5028486;28;20189;-64
2021/10/20 03:28:26;;;;;;;8.23;7.00;;;12.60;99.90;;;;;;5025623;28;20288;-62
2021/10/20 03:30:52;;;;;;;5.33;4.83;;;12.60;99.90;;;;;;5025825;28;20754;-63
2021/10/20 03:33:17;;;;;;;7.50;5.40;;;12.50;99.90;;;;;;5027789;28;20219;-62
2021/10/20 03:35:43;;;;;;;7.43;5.60;;;12.60;99.90;;;;;;5026875;28;20594;-63
2021/10/20 03:38:10;;;;;;;9.80;5.20;;;12.60;99.90;;;;;;5025056;28;20699;-62
2021/10/20 03:40:36;;;;;;;6.07;4.60;;;12.50;99.90;;;;;;5027299;28;20201;-63
2021/10/20 03:43:03;;;;;;;5.77;4.80;;;12.60;99.90;;;;;;5025429;28;20469;-62
2021/10/20 03:45:29;;;;;;;4.93;4.43;;;12.60;99.90;;;;;;5026138;28;20762;-62
2021/10/20 03:47:55;;;;;;;7.40;4.93;;;12.40;99.90;;;;;;5027991;28;20415;-62
2021/10/20 03:50:21;;;;;;;5.07;4.57;;;12.30;99.90;;;;;;5025018;28;20517;-63
2021/10/20 03:52:46;;;;;;;5.57;4.97;;;12.30;99.90;;;;;;5028466;28;20243;-62
2021/10/20 03:55:12;;;;;;;4.80;4.30;;;12.30;99.90;;;;;;5023096;28;20721;-62
2021/10/20 03:57:40;;;;;;;8.10;4.90;;;12.40;99.90;;;;;;5025525;28;20181;-63
2021/10/20 04:00:09;;;;;;;5.10;4.60;;;12.40;99.90;;;;;;5025429;28;20438;-62
2021/10/20 04:02:35;;;;;;;5.67;4.90;;;12.40;99.90;;;;;;5026318;28;20920;-63
2021/10/20 04:05:00;;;;;;;5.33;4.57;;;12.50;99.90;;;;;;5025397;28;20497;-63
2021/10/20 04:07:26;;;;;;;6.07;4.87;;;12.30;99.90;;;;;;5025425;28;20427;-63
2021/10/20 04:09:55;;;;;;;4.97;4.40;;;12.40;99.90;;;;;;5026064;28;20195;-63
2021/10/20 04:12:20;;;;;;;4.93;4.43;;;12.40;99.90;;;;;;5025175;28;20478;-63
2021/10/20 04:14:46;;;;;;;7.43;5.37;;;12.40;99.90;;;;;;5024218;28;20428;-63
2021/10/20 04:17:12;;;;;;;5.93;4.63;;;12.50;99.90;;;;;;5023991;28;20276;-63
2021/10/20 04:19:37;;;;;;;5.03;4.47;;;12.40;99.90;;;;;;5026314;28;20258;-63
2021/10/20 04:22:03;;;;;;;5.90;4.30;;;12.40;99.90;;;;;;5025489;28;20207;-63
2021/10/20 04:24:28;;;;;;;9.63;5.03;;;12.20;99.90;;;;;;5022584;28;20563;-64
2021/10/20 04:26:54;;;;;;;6.67;5.37;;;12.20;99.90;;;;;;5028286;28;20184;-63
2021/10/20 04:29:20;;;;;;;6.33;5.10;;;12.10;99.90;;;;;;5023916;28;20188;-63
2021/10/20 04:31:45;;;;;;;5.33;4.83;;;12.10;99.90;;;;;;5024866;28;20634;-63
2021/10/20 04:34:11;;;;;;;8.23;5.00;;;12.00;99.90;;;;;;5025653;28;20196;-63
2021/10/20 04:36:37;;;;;;;7.00;4.80;;;12.00;99.90;;;;;;5007067;28;20204;-63
2021/10/20 04:39:03;;;;;;;7.50;4.83;;;12.00;99.90;;;;;;5025936;28;20215;-63
2021/10/20 04:41:28;;;;;;;7.57;5.20;;;12.10;99.90;;;;;;5023174;28;20208;-63
2021/10/20 04:43:54;;;;;;;8.03;5.03;;;12.00;99.90;;;;;;5021571;28;20462;-63
2021/10/20 04:46:21;;;;;;;5.90;5.30;;;12.00;99.90;;;;;;5027327;28;20232;-63
2021/10/20 04:48:46;;;;;;;5.63;4.80;;;12.10;99.90;;;;;;5008793;28;20296;-63
2021/10/20 04:51:12;;;;;;;6.90;5.20;;;12.10;99.90;;;;;;5029911;28;20907;-64
2021/10/20 04:53:38;;;;;;;6.50;5.10;;;12.20;99.90;;;;;;5024441;28;20270;-63
2021/10/20 04:56:04;;;;;;;5.23;4.33;;;12.00;99.90;;;;;;5023619;28;20204;-63
2021/10/20 04:58:30;;;;;;;7.13;5.33;;;11.90;99.90;;;;;;5026645;28;20443;-63
2021/10/20 05:00:55;;;;;;;10.00;5.50;;;12.00;99.90;;;;;;5024517;28;20493;-63
2021/10/20 05:03:21;;;;;;;6.87;5.60;;;12.00;99.90;;;;;;5024283;28;20745;-63
2021/10/20 05:05:47;;;;;;;6.23;5.17;;;12.10;99.90;;;;;;5026310;28;20195;-64
2021/10/20 05:08:12;;;;;;;7.73;5.13;;;12.20;99.90;;;;;;5025409;28;20192;-63
2021/10/20 05:10:39;;;;;;;6.00;5.00;;;12.10;99.90;;;;;;5025023;28;20220;-63
2021/10/20 05:13:05;;;;;;;8.70;4.93;;;12.10;99.90;;;;;;5023771;28;20204;-63
2021/10/20 05:15:30;;;;;;;6.23;5.03;;;12.10;99.90;;;;;;5023843;28;20443;-63
2021/10/20 05:17:56;;;;;;;7.63;5.67;;;12.20;99.90;;;;;;5026991;28;20195;-63
2021/10/20 05:20:22;;;;;;;5.17;4.50;;;12.20;99.90;;;;;;5008525;28;20745;-64
2021/10/20 05:22:48;;;;;;;5.57;4.80;;;12.30;99.90;;;;;;5025483;28;20193;-63
2021/10/20 05:25:15;;;;;;;9.87;5.53;;;12.30;99.90;;;;;;5023304;28;20193;-63
2021/10/20 05:27:41;;;;;;;8.57;5.30;;;12.40;99.90;;;;;;5006653;28;20952;-63
2021/10/20 05:30:08;;;;;;;7.20;5.63;;;12.40;99.90;;;;;;5025151;28;20500;-63
2021/10/20 05:32:34;;;;;;;7.50;5.40;;;12.50;99.90;;;;;;5024238;28;20548;-63
2021/10/20 05:35:00;;;;;;;7.57;6.33;;;12.50;99.90;;;;;;5021453;28;20941;-63
2021/10/20 05:37:25;;;;;;;7.17;5.00;;;12.40;99.90;;;;;;4978565;28;20286;-63
2021/10/20 05:39:52;;;;;;;6.20;5.37;;;12.40;99.90;;;;;;5023022;28;20201;-64
2021/10/20 05:42:19;;;;;;;7.10;5.63;;;12.40;99.90;;;;;;5023442;28;20184;-63
2021/10/20 05:44:45;;;;;;;6.07;5.30;;;12.50;99.90;;;;;;5027466;28;20446;-63
2021/10/20 05:47:11;;;;;;;7.47;6.00;;;12.40;99.90;;;;;;5026231;28;20879;-63
2021/10/20 05:49:37;;;;;;;7.77;6.23;;;12.40;99.90;;;;;;5024739;28;20423;-63
2021/10/20 05:52:04;;;;;;;8.30;6.07;;;12.60;99.90;;;;;;5024556;28;20528;-63
2021/10/20 05:54:29;;;;;;;6.77;5.97;;;12.60;99.90;;;;;;5019399;28;20192;-64
2021/10/20 05:56:55;;;;;;;7.27;5.43;;;12.50;99.90;;;;;;5023614;28;20958;-63
2021/10/20 05:59:22;;;;;;;7.17;5.83;;;12.30;99.90;;;;;;5022156;28;20271;-63
2021/10/20 06:01:49;;;;;;;7.20;6.30;;;12.20;99.90;;;;;;5024470;28;20490;-64
2021/10/20 06:04:16;;;;;;;7.37;5.27;;;12.10;99.90;;;;;;5022894;28;20816;-63
2021/10/20 06:06:42;;;;;;;8.63;5.03;;;12.20;99.90;;;;;;5022024;28;20489;-63
2021/10/20 06:09:07;;;;;;;7.10;5.80;;;12.30;99.90;;;;;;5023650;28;20909;-63
2021/10/20 06:11:33;;;;;;;6.90;5.00;;;12.40;99.90;;;;;;5022941;28;20216;-62
2021/10/20 06:13:59;;;;;;;7.50;5.23;;;12.50;99.90;;;;;;5022287;28;20216;-62
2021/10/20 06:16:26;;;;;;;8.17;5.80;;;12.60;99.90;;;;;;5022562;28;20638;-63
2021/10/20 06:18:51;;;;;;;8.73;5.10;;;12.40;99.90;;;;;;5010846;28;20189;-63
2021/10/20 06:21:17;;;;;;;9.50;4.97;;;12.30;99.90;;;;;;5022296;28;20471;-63
2021/10/20 06:23:43;;;;;;;5.33;4.40;;;12.30;99.90;;;;;;5003523;28;20204;-62
2021/10/20 06:26:09;;;;;;;5.30;4.80;;;12.50;99.90;;;;;;5024479;28;20204;-63
2021/10/20 06:28:35;;;;;;;7.10;4.60;;;12.60;99.90;;;;;;5023249;28;20192;-63
2021/10/20 06:31:01;;;;;;;7.27;4.57;;;12.30;99.90;;;;;;5021446;28;20451;-63
2021/10/20 06:33:26;;;;;;;8.10;5.03;;;12.30;99.90;;;;;;5008557;28;20274;-63
2021/10/20 06:35:54;;;;;;;5.67;5.00;;;12.30;99.90;;;;;;5023572;28;20292;-63
2021/10/20 06:38:20;;;;;;;6.97;4.70;;;12.30;99.90;;;;;;5021950;28;20215;-62
2021/10/20 06:40:46;;;;;;;16.17;5.57;;;12.40;99.90;;;;;;5023906;28;20455;-62
2021/10/20 06:43:12;;;;;;;9.40;4.93;;;12.50;99.90;;;;;;5027201;28;20550;-62
2021/10/20 06:45:37;;;;;;;10.63;4.60;;;12.50;99.90;;;;;;5022974;28;20227;-62
2021/10/20 06:48:04;;;;;;;5.53;4.40;;;12.40;99.90;;;;;;5010311;28;20570;-63
2021/10/20 06:50:31;;;;;;;7.60;5.47;;;12.30;99.90;;;;;;5021946;28;20212;-62
2021/10/20 06:52:57;;;;;;;11.60;5.40;;;12.40;99.90;;;;;;5024635;28;20475;-63
2021/10/20 06:55:23;;;;;;;9.33;5.10;;;12.40;99.90;;;;;;5009515;28;20439;-63
2021/10/20 06:57:48;;;;;;;7.27;4.90;;;12.50;99.90;;;;;;5009389;28;20215;-62
2021/10/20 07:00:14;;;;;;;6.23;5.03;;;12.50;99.90;;;;;;5027010;28;20470;-62
2021/10/20 07:02:41;;;;;;;6.93;4.90;;;12.70;99.90;;;;;;5026228;28;20184;-63
2021/10/20 07:05:10;;;;;;;6.63;4.43;;;12.60;99.90;;;;;;5008281;28;20236;-63
2021/10/20 07:07:35;;;;;;;6.00;5.13;;;12.70;99.90;;;;;;5025131;28;20435;-62
2021/10/20 07:10:01;;;;;;;7.43;4.93;;;12.80;99.90;;;;;;5026299;28;20441;-63
2021/10/20 07:12:30;;;;;;;7.37;4.77;;;12.70;99.90;;;;;;5026082;28;21185;-62
2021/10/20 07:14:57;;;;;;;6.70;5.30;;;12.70;99.90;;;;;;5005603;28;20598;-62
2021/10/20 07:17:23;;;;;;;8.23;5.23;;;12.60;99.90;;;;;;5008745;28;20514;-62
2021/10/20 07:19:49;;;;;;;6.67;5.20;;;12.70;99.90;;;;;;5023783;28;20431;-62
2021/10/20 07:22:14;;;;;;;8.30;5.87;;;12.70;99.90;;;;;;5008056;28;20459;-62
2021/10/20 07:24:40;;;;;;;5.80;5.07;;;12.90;99.90;;;;;;5027567;28;20451;-62
2021/10/20 07:27:06;;;;;;;10.10;5.10;;;12.90;99.90;;;;;;5024526;28;20204;-62
2021/10/20 07:29:32;;;;;;;6.87;5.40;;;13.00;99.90;;;;;;5022606;28;20203;-63
2021/10/20 07:31:59;;;;;;;5.03;4.53;;;13.10;99.90;;;;;;5021478;28;20475;-62
2021/10/20 07:34:25;;;;;;;8.70;5.63;;;13.10;99.90;;;;;;5025973;28;20592;-62
2021/10/20 07:36:50;;;;;;;7.57;5.13;;;13.10;99.90;;;;;;5026211;28;20439;-62
2021/10/20 07:39:17;;;;;;;7.23;5.23;;;13.20;99.90;;;;;;5022401;28;20195;-63
2021/10/20 07:41:44;;;;;;;5.70;4.70;;;13.30;99.90;;;;;;5024407;28;20291;-63
2021/10/20 07:44:10;;;;;;;9.63;5.77;;;13.40;99.90;;;;;;5008098;28;20929;-63
2021/10/20 07:46:36;;;;;;;9.07;5.83;;;13.70;99.90;;;;;;5023132;28;20445;-62
2021/10/20 07:49:03;;;;;;;13.10;7.33;;;13.90;99.90;;;;;;5025843;28;20435;-62
2021/10/20 07:51:29;;;;;;;10.00;6.43;;;14.00;99.90;;;;;;5021101;28;20263;-62
2021/10/20 07:53:55;;;;;;;6.90;5.60;;;13.90;99.90;;;;;;5024172;28;20474;-63
2021/10/20 07:56:20;;;;;;;5.67;5.07;;;13.90;99.90;;;;;;5024357;28;20216;-63
2021/10/20 07:58:46;;;;;;;10.70;6.73;;;14.00;99.90;;;;;;5025398;28;20514;-63
2021/10/20 08:01:12;;;;;;;7.53;5.43;;;14.00;99.90;;;;;;5023326;28;20220;-63
2021/10/20 08:03:38;;;;;;;8.03;5.93;;;13.90;99.90;;;;;;5024257;28;20447;-63
2021/10/20 08:06:04;;;;;;;13.77;6.90;;;13.90;99.90;;;;;;5026352;28;20215;-63
2021/10/20 08:08:29;;;;;;;14.13;8.50;;;14.00;99.90;;;;;;5023720;28;20528;-62
2021/10/20 08:10:55;;;;;;;24.83;9.60;;;14.10;99.90;;;;;;5021995;28;20236;-62
2021/10/20 08:13:22;;;;;;;52.43;19.30;;;14.20;99.90;;;;;;5024066;28;20608;-63
2021/10/20 08:15:48;;;;;;;19.97;7.40;;;14.20;99.90;;;;;;5024345;28;20732;-63
2021/10/20 08:18:14;;;;;;;21.30;10.33;;;14.20;99.90;;;;;;5022024;28;20436;-63
2021/10/20 08:20:40;;;;;;;7.30;5.30;;;14.40;99.90;;;;;;5004870;28;20207;-62
2021/10/20 08:23:07;;;;;;;7.13;6.43;;;14.50;99.90;;;;;;5024119;28;20848;-62
2021/10/20 08:25:35;;;;;;;7.47;6.40;;;14.70;99.90;;;;;;5026372;28;20535;-63
2021/10/20 08:28:05;;;;;;;7.73;5.67;;;14.80;99.90;;;;;;5021815;28;20451;-62
2021/10/20 08:30:34;;;;;;;6.60;5.37;;;14.60;99.90;;;;;;5006751;28;20591;-62
2021/10/20 08:33:00;;;;;;;8.07;6.07;;;14.50;99.90;;;;;;5024058;28;20474;-62
2021/10/20 08:35:26;;;;;;;7.20;5.80;;;14.60;99.90;;;;;;5011032;28;20447;-61
2021/10/20 08:37:56;;;;;;;7.80;5.67;;;14.60;99.90;;;;;;5011376;28;20427;-62
2021/10/20 08:40:29;;;;;;;8.03;5.33;;;14.90;99.90;;;;;;5015653;28;20295;-62
2021/10/20 08:42:56;;;;;;;5.73;5.13;;;15.00;99.90;;;;;;5019271;28;20435;-62
2021/10/20 08:45:23;;;;;;;9.33;5.47;;;15.00;99.90;;;;;;5002346;28;20467;-62
2021/10/20 08:47:50;;;;;;;8.43;4.73;;;15.30;99.90;;;;;;5019657;28;20443;-60
2021/10/20 08:50:21;;;;;;;6.10;4.63;;;15.40;99.90;;;;;;5004773;28;20463;-61
2021/10/20 08:52:48;;;;;;;5.73;4.27;;;15.50;99.90;;;;;;5003878;28;21173;-61
2021/10/20 08:55:16;;;;;;;7.00;4.67;;;15.60;99.90;;;;;;5015192;28;20443;-61
2021/10/20 08:57:45;;;;;;;7.70;4.40;;;15.70;99.90;;;;;;5020348;28;20446;-63
2021/10/20 09:00:13;;;;;;;5.67;5.00;;;15.90;99.90;;;;;;5015127;28;20435;-63
2021/10/20 09:02:40;;;;;;;5.43;4.47;;;16.00;99.90;;;;;;5018412;28;20534;-64
2021/10/20 09:05:11;;;;;;;5.70;4.33;;;16.00;99.90;;;;;;5018499;28;20478;-62
2021/10/20 09:07:40;;;;;;;5.07;4.57;;;16.20;99.90;;;;;;5003709;28;20451;-63
2021/10/20 09:10:06;;;;;;;7.10;4.27;;;16.30;99.90;;;;;;5017218;28;20444;-63
2021/10/20 09:12:37;;;;;;;6.00;4.33;;;16.40;99.90;;;;;;5013135;28;20481;-64
2021/10/20 09:15:05;;;;;;;5.30;4.20;;;16.60;99.90;;;;;;5019358;28;20595;-62
2021/10/20 09:17:50;;;;;;;4.20;3.77;;;16.80;99.90;;;;;;5017042;28;20443;-63
2021/10/20 09:20:32;;;;;;;4.37;3.97;;;16.90;99.90;;;;;;5005597;28;21031;-62
2021/10/20 09:23:16;;;;;;;4.93;4.00;;;17.10;99.90;;;;;;5017758;28;20455;-63
2021/10/20 09:25:51;;;;;;;3.97;3.50;;;17.30;99.90;;;;;;5020112;28;20813;-63
2021/10/20 09:28:22;;;;;;;4.83;4.10;;;17.40;99.90;;;;;;5018336;28;20451;-62
2021/10/20 09:30:48;;;;;;;9.23;3.40;;;17.50;99.90;;;;;;5012089;28;20463;-62
2021/10/20 09:33:14;;;;;;;6.50;4.37;;;17.60;99.90;;;;;;5008895;28;20463;-63
2021/10/20 09:35:40;;;;;;;3.97;3.40;;;17.70;99.90;;;;;;5017494;28;20933;-63
2021/10/20 09:38:10;;;;;;;4.07;3.67;;;17.80;99.90;;;;;;5015998;28;20976;-63
2021/10/20 09:40:40;;;;;;;6.57;4.10;;;17.90;99.90;;;;;;5003173;28;20807;-63
2021/10/20 09:43:08;;;;;;;4.60;3.20;;;18.00;99.90;;;;;;4999223;28;20447;-62
2021/10/20 09:45:36;;;;;;;6.33;3.80;;;17.90;99.90;;;;;;5016245;28;20431;-63
2021/10/20 09:48:14;;;;;;;5.37;3.90;;;18.00;99.90;;;;;;5018329;28;20534;-63
2021/10/20 09:50:52;;;;;;;4.70;3.83;;;18.00;99.90;;;;;;5019625;28;20446;-63
2021/10/20 09:53:18;;;;;;;5.00;3.50;;;18.10;99.90;;;;;;5017829;28;20843;-63
2021/10/20 09:55:44;;;;;;;4.13;3.73;;;18.10;99.90;;;;;;5015833;28;20442;-63
2021/10/20 09:58:12;;;;;;;9.50;3.70;;;18.20;99.90;;;;;;5015512;28;20443;-62
2021/10/20 10:00:39;;;;;;;4.03;3.67;;;18.30;99.90;;;;;;5018117;28;20208;-63
2021/10/20 10:03:06;;;;;;;5.43;3.90;;;18.40;99.90;;;;;;5016076;28;20537;-63
2021/10/20 10:05:32;;;;;;;4.53;4.13;;;18.50;99.90;;;;;;4997108;28;20439;-63
2021/10/20 10:07:58;;;;;;;5.80;4.00;;;18.60;99.90;;;;;;5000290;28;20956;-63
2021/10/20 10:10:24;;;;;;;4.80;3.93;;;18.70;99.90;;;;;;5015138;28;20471;-63
2021/10/20 10:12:57;;;;;;;4.30;3.90;;;18.80;99.90;;;;;;5019839;28;20466;-63
2021/10/20 10:15:25;;;;;;;5.47;4.07;;;19.00;99.90;;;;;;5019089;28;20862;-62
2021/10/20 10:17:53;;;;;;;4.27;3.87;;;19.00;99.90;;;;;;5019948;28;20424;-63
2021/10/20 10:20:19;;;;;;;4.30;3.90;;;19.10;99.90;;;;;;5015621;28;20896;-63
2021/10/20 10:22:48;;;;;;;3.57;3.27;;;19.20;99.90;;;;;;5023485;28;20496;-63
2021/10/20 10:25:15;;;;;;;4.60;3.73;;;19.30;99.90;;;;;;5020499;28;20427;-63
2021/10/20 10:28:17;;;;;;;4.30;3.53;;;19.30;99.90;;;;;;5018731;28;20443;-63
2021/10/20 10:30:51;;;;;;;4.37;4.00;;;19.50;99.90;;;;;;5018337;28;20482;-62
2021/10/20 10:33:24;;;;;;;4.37;3.97;;;19.50;99.90;;;;;;5017562;28;20500;-62
2021/10/20 10:36:03;;;;;;;9.53;3.90;;;19.70;99.90;;;;;;5019797;28;20441;-62
2021/10/20 10:38:39;;;;;;;5.13;3.67;;;19.80;99.90;;;;;;5019179;28;20439;-62
2021/10/20 10:41:26;;;;;;;6.27;3.43;;;19.90;99.90;;;;;;5021646;28;20497;-63
2021/10/20 10:44:05;;;;;;;6.80;3.33;;;20.00;99.90;;;;;;5000010;28;20824;-62
2021/10/20 10:46:37;;;;;;;7.33;3.80;;;20.20;99.90;;;;;;5018745;28;20474;-63
2021/10/20 10:49:20;;;;;;;3.77;3.37;;;20.30;99.90;;;;;;5020246;28;20454;-63
2021/10/20 10:52:06;;;;;;;4.10;3.63;;;20.40;99.90;;;;;;5016876;28;20465;-63
2021/10/20 10:54:38;;;;;;;4.43;2.70;;;20.50;99.90;;;;;;5020312;28;20462;-62
2021/10/20 10:57:15;;;;;;;3.70;3.40;;;20.70;99.90;;;;;;5019550;28;20831;-62
2021/10/20 10:59:54;;;;;;;3.80;3.27;;;20.80;99.90;;;;;;5000064;28;20434;-62
2021/10/20 11:02:56;;;;;;;3.40;2.80;;;20.90;99.90;;;;;;5014538;28;20521;-63
2021/10/20 11:05:28;;;;;;;4.07;3.67;;;21.00;99.90;;;;;;4940583;28;20462;-63
2021/10/20 11:08:05;;;;;;;4.83;3.30;;;21.00;99.90;;;;;;5005840;28;20525;-63
2021/10/20 11:10:34;;;;;;;4.67;3.20;;;21.20;99.90;;;;;;5018949;28;20460;-63
2021/10/20 11:12:59;;;;;;;3.70;3.10;;;21.30;99.90;;;;;;5018816;28;20882;-63
2021/10/20 11:15:31;;;;;;;4.07;3.27;;;21.40;99.90;;;;;;5018140;28;20443;-63
2021/10/20 11:17:58;;;;;;;4.00;3.30;;;21.50;99.90;;;;;;5002102;28;20185;-63
2021/10/20 11:20:26;;;;;;;4.10;3.40;;;21.60;99.90;;;;;;5013918;28;20993;-64
2021/10/20 11:22:56;;;;;;;3.17;2.90;;;21.60;99.90;;;;;;4999236;28;20488;-63
2021/10/20 11:25:24;;;;;;;3.40;2.57;;;21.60;99.90;;;;;;5018662;28;20477;-63
2021/10/20 11:27:55;;;;;;;5.37;3.77;;;21.70;99.90;;;;;;5020774;28;20472;-63
2021/10/20 11:30:24;;;;;;;4.43;3.67;;;21.70;99.90;;;;;;5016969;28;20519;-64
2021/10/20 11:32:50;;;;;;;3.60;3.30;;;21.60;99.90;;;;;;5004822;28;20466;-64
2021/10/20 11:35:24;;;;;;;3.83;2.97;;;21.50;99.90;;;;;;5020324;28;20919;-64
2021/10/20 11:38:00;;;;;;;4.03;3.23;;;21.40;99.90;;;;;;5002681;28;20689;-62
2021/10/20 11:40:31;;;;;;;3.23;2.93;;;21.40;99.90;;;;;;5016951;28;20454;-63
2021/10/20 11:42:56;;;;;;;3.17;2.90;;;21.40;99.90;;;;;;5020762;28;20455;-63
2021/10/20 11:45:22;;;;;;;4.37;3.60;;;21.30;99.90;;;;;;5024535;28;20480;-63
2021/10/20 11:47:49;;;;;;;4.77;3.37;;;21.20;99.90;;;;;;5025249;28;20681;-63
2021/10/20 11:50:17;;;;;;;4.30;2.80;;;21.10;99.90;;;;;;5001862;28;20701;-63
2021/10/20 11:52:44;;;;;;;4.03;3.40;;;21.10;99.90;;;;;;5020507;28;20565;-62
2021/10/20 11:55:11;;;;;;;3.30;3.07;;;21.00;99.90;;;;;;5020540;28;20431;-62
2021/10/20 11:57:43;;;;;;;4.60;3.70;;;20.90;99.90;;;;;;5020708;28;20436;-62
2021/10/20 12:00:09;;;;;;;5.07;3.33;;;20.80;99.90;;;;;;5011165;28;20526;-63
2021/10/20 12:02:35;;;;;;;3.80;3.00;;;20.80;99.90;;;;;;4994618;28;20965;-62
2021/10/20 12:05:01;;;;;;;5.30;3.03;;;20.70;99.90;;;;;;5022186;28;20539;-62
2021/10/20 12:07:31;;;;;;;3.20;2.83;;;20.70;99.90;;;;;;5022071;28;20335;-62
2021/10/20 12:10:04;;;;;;;4.20;3.57;;;20.70;99.90;;;;;;5024497;28;20439;-62
2021/10/20 12:12:30;;;;;;;4.30;3.43;;;20.60;99.90;;;;;;5021330;28;20462;-62
2021/10/20 12:14:57;;;;;;;4.10;3.10;;;20.60;99.90;;;;;;5008994;28;20518;-63
2021/10/20 12:17:28;;;;;;;3.97;3.57;;;20.60;99.90;;;;;;5025859;28;20438;-62
2021/10/20 12:19:59;;;;;;;5.03;3.60;;;20.60;99.90;;;;;;4994062;28;20467;-62
2021/10/20 12:22:27;;;;;;;3.70;3.40;;;20.60;99.90;;;;;;5023133;28;20466;-62
2021/10/20 12:24:55;;;;;;;6.10;3.20;;;20.60;99.90;;;;;;5004540;28;20450;-62
2021/10/20 12:27:24;;;;;;;5.00;3.17;;;20.60;99.90;;;;;;5024518;28;20446;-63
2021/10/20 12:29:55;;;;;;;3.30;3.00;;;20.60;99.90;;;;;;5022316;28;20454;-64
2021/10/20 12:32:34;;;;;;;3.63;3.00;;;20.50;99.90;;;;;;5020006;28;20996;-64
2021/10/20 12:35:08;;;;;;;4.50;3.40;;;20.50;99.90;;;;;;5018179;28;20438;-64
2021/10/20 12:37:39;;;;;;;3.57;3.27;;;20.60;99.90;;;;;;5006342;28;20603;-64
2021/10/20 12:40:11;;;;;;;4.03;3.10;;;20.60;99.90;;;;;;5022841;28;21209;-63
2021/10/20 12:42:45;;;;;;;5.90;3.13;;;20.50;99.90;;;;;;5020107;28;20459;-64
2021/10/20 12:45:12;;;;;;;7.23;3.70;;;20.50;99.90;;;;;;5020512;28;20442;-64
2021/10/20 12:47:42;;;;;;;5.23;3.30;;;20.50;99.90;;;;;;5019068;28;20742;-64